Main page
METAR-TAF:

METAR-TAF

Airports :

Formosa International Airport

Formosa, Argentina

latitude: 26-12S, longitude: 058-14W, elevation: 59 m

Current weather observation

The report was made 12 minutes ago, at 06:00 UTC
Wind 3 kt from the Southeast
Temperature 1°C
Humidity 93%
Pressure 1027 hPa
Visibility 10 km or more
no clouds below 1500 m and no cumulonimbus

METAR: SARF 300600Z 14003KT CAVOK 01/M00 Q1027

Time: 03:12 (06:12 UTC)

Forecast

The report was made 1 hour and 12 minutes ago, at 05:00 UTC
Forecast valid from 30 at 06 UTC to 31 at 06 UTC
Wind 5 kt from the Southeast
Visibility 10 km or more
no clouds below 1500 m and no cumulonimbus

TAF: SARF 300500Z 3006/3106 14005KT CAVOK TX17/3019Z TNM01/3011Z

Weather observations and forecasts of more than 4000 airports (METAR and TAF reports).

The available stations are represented by yellow and red dots on the map.

Hover mouse over dot to see the name of the station.

Then click to see weather observations and forecasts.

To change the map : click on the green buttons with a black cross to zoom in, on the green button with a dash to zoom out, or on the green arrows for adjacent maps.


METAR-TAF: